createdAt,value
2022-09-28T00:00:21.444Z,953.67
2022-09-28T00:01:21.448Z,953.63
2022-09-28T00:02:21.444Z,953.61
2022-09-28T00:03:21.382Z,953.61
2022-09-28T00:04:21.375Z,953.58
2022-09-28T00:05:21.416Z,953.56
2022-09-28T00:06:21.346Z,953.48
2022-09-28T00:07:21.326Z,953.51
2022-09-28T00:08:21.342Z,953.54
2022-09-28T00:09:21.319Z,953.52
2022-09-28T00:10:21.305Z,953.41
2022-09-28T00:11:21.319Z,953.41
2022-09-28T00:12:21.283Z,953.39
2022-09-28T00:13:21.271Z,953.43
2022-09-28T00:14:21.276Z,953.41
2022-09-28T00:15:21.256Z,953.41
2022-09-28T00:16:21.340Z,953.35
2022-09-28T00:17:21.235Z,953.34
2022-09-28T00:18:22.223Z,953.32
2022-09-28T00:19:21.208Z,953.34
2022-09-28T00:20:21.208Z,953.29
2022-09-28T00:21:21.222Z,953.26
2022-09-28T00:22:21.168Z,953.28
2022-09-28T00:23:21.166Z,953.26
2022-09-28T00:24:25.266Z,953.22
2022-09-28T00:25:21.145Z,953.23
2022-09-28T00:26:21.152Z,953.21
2022-09-28T00:27:21.128Z,953.22
2022-09-28T00:28:21.099Z,953.16
2022-09-28T00:29:21.085Z,953.19
2022-09-28T00:30:21.087Z,953.14
2022-09-28T00:31:21.081Z,953.11
2022-09-28T00:32:21.085Z,953.11
2022-09-28T00:33:21.060Z,953.04
2022-09-28T00:34:21.024Z,953.07
2022-09-28T00:35:21.022Z,953.07
2022-09-28T00:36:21.014Z,953.01
2022-09-28T00:37:21.053Z,953.08
2022-09-28T00:38:20.984Z,953.06
2022-09-28T00:39:20.985Z,952.99
2022-09-28T00:40:21.012Z,953.05
2022-09-28T00:41:20.945Z,953.02
2022-09-28T00:42:20.948Z,953.05
2022-09-28T00:43:20.948Z,952.99
2022-09-28T00:44:20.928Z,952.99
2022-09-28T00:45:20.918Z,953.00
2022-09-28T00:46:21.268Z,953.04
2022-09-28T00:47:21.064Z,952.95
2022-09-28T00:48:20.886Z,952.92
2022-09-28T00:49:20.857Z,952.87
2022-09-28T00:50:20.865Z,952.94
2022-09-28T00:51:20.854Z,952.88
2022-09-28T00:52:20.835Z,952.90
2022-09-28T00:53:20.858Z,952.84
2022-09-28T00:54:20.816Z,952.86
2022-09-28T00:55:21.089Z,952.88
2022-09-28T00:56:20.807Z,952.78
2022-09-28T00:57:20.776Z,952.72
2022-09-28T00:58:20.791Z,952.94
2022-09-28T00:59:20.767Z,952.79
2022-09-28T01:00:20.753Z,952.77
2022-09-28T01:01:20.798Z,952.75
2022-09-28T01:02:20.779Z,952.76
2022-09-28T01:03:20.765Z,952.72
2022-09-28T01:04:20.716Z,952.70
2022-09-28T01:05:20.709Z,952.67
2022-09-28T01:06:20.688Z,952.66
2022-09-28T01:07:20.681Z,952.62
2022-09-28T01:08:20.704Z,952.60
2022-09-28T01:09:21.664Z,952.56
2022-09-28T01:10:20.642Z,952.60
2022-09-28T01:11:20.643Z,952.61
2022-09-28T01:12:20.634Z,952.57
2022-09-28T01:13:20.613Z,952.58
2022-09-28T01:14:20.650Z,952.56
2022-09-28T01:15:20.593Z,952.59
2022-09-28T01:16:20.633Z,952.59
2022-09-28T01:17:20.581Z,952.56
2022-09-28T01:18:20.557Z,952.58
2022-09-28T01:19:20.578Z,952.60
2022-09-28T01:20:20.538Z,952.51
2022-09-28T01:21:21.523Z,952.51
2022-09-28T01:22:20.583Z,952.48
2022-09-28T01:23:20.514Z,952.55
2022-09-28T01:24:20.496Z,952.53
2022-09-28T01:25:20.514Z,952.42
2022-09-28T01:26:20.482Z,952.43
2022-09-28T01:27:20.450Z,952.43
2022-09-28T01:28:20.455Z,952.43
2022-09-28T01:29:20.459Z,952.44
2022-09-28T01:30:20.469Z,952.34
2022-09-28T01:31:20.428Z,952.50
2022-09-28T01:32:20.421Z,952.38
2022-09-28T01:33:20.394Z,952.41
2022-09-28T01:34:20.389Z,952.38
2022-09-28T01:35:20.377Z,952.34
2022-09-28T01:36:20.383Z,952.41
2022-09-28T01:37:20.346Z,952.42
2022-09-28T01:38:20.353Z,952.33
2022-09-28T01:39:20.322Z,952.38
2022-09-28T01:40:20.334Z,952.42
2022-09-28T01:41:20.991Z,952.37
2022-09-28T01:42:20.295Z,952.31
2022-09-28T01:43:20.286Z,952.33
2022-09-28T01:44:20.288Z,952.30
2022-09-28T01:45:20.262Z,952.22
2022-09-28T01:46:20.354Z,952.24
2022-09-28T01:47:20.276Z,952.19
2022-09-28T01:48:20.228Z,952.22
2022-09-28T01:49:20.208Z,952.22
2022-09-28T01:50:20.789Z,952.15
2022-09-28T01:51:20.196Z,952.13
2022-09-28T01:52:20.187Z,952.11
2022-09-28T01:53:20.182Z,952.18
2022-09-28T01:54:20.158Z,952.16
2022-09-28T01:55:20.151Z,952.09
2022-09-28T01:56:20.153Z,952.23
2022-09-28T01:57:20.156Z,952.09
2022-09-28T01:58:20.127Z,952.07
2022-09-28T01:59:20.121Z,952.08
2022-09-28T02:00:20.101Z,952.11
2022-09-28T02:01:20.133Z,952.14
2022-09-28T02:02:20.198Z,952.03
2022-09-28T02:03:20.065Z,952.03
2022-09-28T02:04:20.056Z,952.03
2022-09-28T02:05:20.032Z,952.03
2022-09-28T02:06:20.016Z,952.08
2022-09-28T02:07:20.027Z,952.03
2022-09-28T02:08:20.014Z,952.06
2022-09-28T02:09:19.992Z,952.04
2022-09-28T02:10:19.987Z,951.98
2022-09-28T02:11:19.983Z,952.01
2022-09-28T02:12:19.960Z,952.03
2022-09-28T02:13:19.959Z,952.05
2022-09-28T02:14:19.939Z,952.06
2022-09-28T02:15:19.919Z,951.93
2022-09-28T02:16:20.004Z,951.95
2022-09-28T02:17:19.908Z,951.93
2022-09-28T02:18:19.900Z,951.97
2022-09-28T02:19:19.891Z,951.97
2022-09-28T02:20:19.868Z,951.90
2022-09-28T02:21:19.854Z,951.93
2022-09-28T02:22:19.845Z,951.89
2022-09-28T02:23:19.871Z,951.85
2022-09-28T02:24:21.738Z,951.83
2022-09-28T02:25:19.802Z,951.89
2022-09-28T02:26:19.813Z,951.82
2022-09-28T02:27:19.779Z,951.84
2022-09-28T02:28:19.810Z,951.80
2022-09-28T02:29:19.769Z,951.81
2022-09-28T02:30:19.754Z,951.82
2022-09-28T02:31:19.786Z,951.77
2022-09-28T02:32:19.755Z,951.79
2022-09-28T02:33:19.727Z,951.80
2022-09-28T02:34:19.719Z,951.79
2022-09-28T02:35:19.708Z,951.80
2022-09-28T02:36:19.680Z,951.80
2022-09-28T02:37:19.668Z,951.79
2022-09-28T02:38:19.677Z,951.78
2022-09-28T02:39:19.684Z,951.69
2022-09-28T02:40:19.672Z,951.81
2022-09-28T02:41:19.646Z,951.74
2022-09-28T02:42:19.624Z,951.77
2022-09-28T02:43:19.616Z,951.69
2022-09-28T02:44:19.659Z,951.74
2022-09-28T02:45:19.606Z,951.70
2022-09-28T02:46:19.635Z,951.76
2022-09-28T02:47:19.588Z,951.69
2022-09-28T02:48:35.938Z,951.73
2022-09-28T02:49:22.033Z,951.72
2022-09-28T02:50:19.559Z,951.70
2022-09-28T02:51:19.540Z,951.75
2022-09-28T02:52:19.521Z,951.69
2022-09-28T02:53:19.515Z,951.73
2022-09-28T02:54:19.487Z,951.71
2022-09-28T02:55:19.490Z,951.72
2022-09-28T02:56:19.481Z,951.68
2022-09-28T02:57:19.459Z,951.60
2022-09-28T02:58:19.444Z,951.63
2022-09-28T02:59:19.439Z,951.72
2022-09-28T03:00:19.463Z,951.62
2022-09-28T03:01:19.470Z,951.57
2022-09-28T03:02:19.488Z,951.56
2022-09-28T03:03:19.406Z,951.58
2022-09-28T03:04:19.389Z,951.56
2022-09-28T03:05:19.429Z,951.52
2022-09-28T03:06:19.366Z,951.55
2022-09-28T03:07:19.367Z,951.56
2022-09-28T03:08:19.354Z,951.58
2022-09-28T03:09:19.327Z,951.58
2022-09-28T03:10:19.321Z,951.56
2022-09-28T03:11:19.336Z,951.57
2022-09-28T03:12:19.306Z,951.50
2022-09-28T03:13:19.293Z,951.54
2022-09-28T03:14:19.286Z,951.54
2022-09-28T03:15:19.272Z,951.51
2022-09-28T03:16:19.352Z,951.58
2022-09-28T03:17:19.269Z,951.52
2022-09-28T03:18:19.237Z,951.53
2022-09-28T03:19:19.210Z,951.51
2022-09-28T03:20:19.232Z,951.51
2022-09-28T03:21:19.231Z,951.49
2022-09-28T03:22:19.189Z,951.42
2022-09-28T03:23:24.776Z,951.47
2022-09-28T03:24:21.176Z,951.45
2022-09-28T03:25:19.155Z,951.41
2022-09-28T03:26:19.142Z,951.43
2022-09-28T03:27:19.168Z,951.44
2022-09-28T03:28:19.137Z,951.42
2022-09-28T03:29:19.173Z,951.39
2022-09-28T03:30:19.097Z,951.40
2022-09-28T03:31:19.150Z,951.41
2022-09-28T03:32:19.126Z,951.37
2022-09-28T03:33:19.068Z,951.43
2022-09-28T03:34:19.077Z,951.45
2022-09-28T03:35:19.035Z,951.40
2022-09-28T03:36:19.028Z,951.40
2022-09-28T03:37:19.033Z,951.37
2022-09-28T03:38:19.037Z,951.35
2022-09-28T03:39:19.065Z,951.38
2022-09-28T03:40:19.090Z,951.36
2022-09-28T03:41:18.987Z,951.38
2022-09-28T03:42:18.968Z,951.41
2022-09-28T03:43:18.984Z,951.37
2022-09-28T03:44:18.934Z,951.36
2022-09-28T03:45:18.942Z,951.34
2022-09-28T03:46:18.945Z,951.34
2022-09-28T03:47:18.905Z,951.36
2022-09-28T03:48:23.943Z,951.30
2022-09-28T03:49:18.883Z,951.32
2022-09-28T03:50:18.880Z,951.33
2022-09-28T03:51:18.895Z,951.27
2022-09-28T03:52:18.866Z,951.24
2022-09-28T03:53:18.910Z,951.26
2022-09-28T03:54:18.844Z,951.26
2022-09-28T03:55:18.819Z,951.24
2022-09-28T03:56:18.811Z,951.22
2022-09-28T03:57:18.837Z,951.25
2022-09-28T03:58:18.853Z,951.24
2022-09-28T03:59:18.877Z,951.18
2022-09-28T04:00:18.797Z,951.25
2022-09-28T04:01:18.819Z,951.23
2022-09-28T04:02:18.803Z,951.22
2022-09-28T04:03:18.734Z,951.19
2022-09-28T04:04:18.803Z,951.19
2022-09-28T04:05:18.711Z,951.21
2022-09-28T04:06:18.705Z,951.17
2022-09-28T04:07:18.707Z,951.18
2022-09-28T04:08:18.710Z,951.18
2022-09-28T04:09:18.830Z,951.16
2022-09-28T04:10:18.703Z,951.15
2022-09-28T04:11:18.659Z,951.20
2022-09-28T04:12:18.672Z,951.18
2022-09-28T04:13:18.645Z,951.14
2022-09-28T04:14:18.633Z,951.14
2022-09-28T04:15:18.649Z,951.19
2022-09-28T04:16:18.701Z,951.18
2022-09-28T04:17:18.590Z,951.21
2022-09-28T04:18:18.594Z,951.16
2022-09-28T04:19:18.654Z,951.14
2022-09-28T04:20:18.589Z,951.15
2022-09-28T04:21:18.567Z,951.16
2022-09-28T04:22:18.555Z,951.16
2022-09-28T04:23:18.545Z,951.17
2022-09-28T04:24:18.528Z,951.20
2022-09-28T04:25:18.522Z,951.13
2022-09-28T04:26:18.541Z,951.16
2022-09-28T04:27:18.501Z,951.10
2022-09-28T04:28:18.477Z,951.20
2022-09-28T04:29:18.677Z,951.20
2022-09-28T04:30:18.452Z,951.17
2022-09-28T04:31:18.525Z,951.14
2022-09-28T04:32:18.428Z,951.13
2022-09-28T04:33:18.415Z,951.12
2022-09-28T04:34:18.409Z,951.08
2022-09-28T04:35:18.754Z,951.16
2022-09-28T04:36:18.379Z,951.12
2022-09-28T04:37:18.408Z,951.17
2022-09-28T04:38:26.880Z,951.18
2022-09-28T04:39:18.544Z,951.16
2022-09-28T04:40:18.365Z,951.18
2022-09-28T04:41:18.341Z,951.10
2022-09-28T04:42:18.356Z,951.12
2022-09-28T04:43:18.366Z,951.18
2022-09-28T04:44:18.576Z,951.16
2022-09-28T04:45:18.267Z,951.10
2022-09-28T04:46:18.361Z,951.18
2022-09-28T04:47:18.312Z,951.22
2022-09-28T04:48:18.244Z,951.17
2022-09-28T04:49:18.405Z,951.21
2022-09-28T04:50:18.227Z,951.21
2022-09-28T04:51:18.203Z,951.20
2022-09-28T04:52:18.767Z,951.18
2022-09-28T04:53:18.195Z,951.19
2022-09-28T04:54:18.185Z,951.24
2022-09-28T04:55:18.186Z,951.19
2022-09-28T04:56:18.147Z,951.17
2022-09-28T04:57:18.145Z,951.15
2022-09-28T04:58:18.195Z,951.19
2022-09-28T04:59:18.313Z,951.20
2022-09-28T05:00:18.118Z,951.22
2022-09-28T05:01:18.196Z,951.20
2022-09-28T05:02:18.137Z,951.18
2022-09-28T05:03:18.127Z,951.19
2022-09-28T05:04:20.312Z,951.22
2022-09-28T05:05:18.075Z,951.19
2022-09-28T05:06:18.046Z,951.18
2022-09-28T05:07:18.050Z,951.20
2022-09-28T05:08:18.032Z,951.26
2022-09-28T05:09:18.149Z,951.23
2022-09-28T05:10:18.007Z,951.31
2022-09-28T05:11:17.996Z,951.25
2022-09-28T05:12:17.980Z,951.28
2022-09-28T05:13:17.983Z,951.25
2022-09-28T05:14:17.992Z,951.28
2022-09-28T05:15:17.956Z,951.32
2022-09-28T05:16:17.962Z,951.28
2022-09-28T05:17:17.919Z,951.22
2022-09-28T05:18:17.909Z,951.27
2022-09-28T05:19:18.071Z,951.25
2022-09-28T05:20:17.892Z,951.26
2022-09-28T05:21:17.885Z,951.28
2022-09-28T05:22:17.875Z,951.29
2022-09-28T05:23:17.857Z,951.27
2022-09-28T05:24:17.853Z,951.29
2022-09-28T05:25:17.886Z,951.32
2022-09-28T05:26:17.829Z,951.32
2022-09-28T05:27:17.824Z,951.34
2022-09-28T05:28:17.795Z,951.30
2022-09-28T05:29:17.937Z,951.37
2022-09-28T05:30:18.461Z,951.33
2022-09-28T05:31:17.827Z,951.32
2022-09-28T05:32:17.762Z,951.34
2022-09-28T05:33:17.744Z,951.39
2022-09-28T05:34:17.723Z,951.36
2022-09-28T05:35:17.743Z,951.37
2022-09-28T05:36:17.732Z,951.34
2022-09-28T05:37:17.729Z,951.37
2022-09-28T05:38:17.702Z,951.39
2022-09-28T05:39:18.469Z,951.40
2022-09-28T05:40:17.715Z,951.48
2022-09-28T05:41:17.716Z,951.46
2022-09-28T05:42:17.672Z,951.49
2022-09-28T05:43:17.683Z,951.48
2022-09-28T05:44:17.706Z,951.49
2022-09-28T05:45:17.625Z,951.48
2022-09-28T05:46:17.711Z,951.48
2022-09-28T05:47:17.649Z,951.46
2022-09-28T05:48:17.580Z,951.49
2022-09-28T05:49:17.587Z,951.49
2022-09-28T05:50:17.582Z,951.53
2022-09-28T05:51:17.546Z,951.51
2022-09-28T05:52:17.598Z,951.51
2022-09-28T05:53:17.540Z,951.52
2022-09-28T05:54:17.831Z,951.54
2022-09-28T05:55:17.502Z,951.55
2022-09-28T05:56:17.633Z,951.59
2022-09-28T05:57:17.544Z,951.55
2022-09-28T05:58:17.499Z,951.51
2022-09-28T05:59:17.493Z,951.57
2022-09-28T06:00:17.469Z,951.54
2022-09-28T06:01:17.522Z,951.55
2022-09-28T06:02:17.493Z,951.57
2022-09-28T06:03:17.453Z,951.51
2022-09-28T06:04:17.499Z,951.52
2022-09-28T06:05:17.401Z,951.56
2022-09-28T06:06:17.399Z,951.50
2022-09-28T06:07:17.394Z,951.54
2022-09-28T06:08:17.407Z,951.60
2022-09-28T06:09:17.382Z,951.51
2022-09-28T06:10:17.345Z,951.56
2022-09-28T06:11:17.360Z,951.55
2022-09-28T06:12:17.358Z,951.55
2022-09-28T06:13:17.345Z,951.55
2022-09-28T06:14:17.421Z,951.58
2022-09-28T06:15:17.369Z,951.66
2022-09-28T06:16:17.362Z,951.62
2022-09-28T06:17:17.288Z,951.58
2022-09-28T06:18:17.294Z,951.59
2022-09-28T06:19:17.298Z,951.62
2022-09-28T06:20:17.243Z,951.58
2022-09-28T06:21:17.299Z,951.60
2022-09-28T06:22:17.224Z,951.59
2022-09-28T06:23:17.206Z,951.61
2022-09-28T06:24:17.406Z,951.57
2022-09-28T06:25:17.180Z,951.58
2022-09-28T06:26:17.165Z,951.63
2022-09-28T06:27:17.163Z,951.57
2022-09-28T06:28:17.143Z,951.59
2022-09-28T06:29:19.427Z,951.63
2022-09-28T06:30:17.150Z,951.62
2022-09-28T06:31:17.137Z,951.59
2022-09-28T06:32:17.098Z,951.59
2022-09-28T06:33:17.071Z,951.65
2022-09-28T06:34:17.125Z,951.62
2022-09-28T06:35:17.106Z,951.72
2022-09-28T06:36:17.047Z,951.63
2022-09-28T06:37:17.041Z,951.75
2022-09-28T06:38:17.019Z,951.69
2022-09-28T06:39:17.032Z,951.72
2022-09-28T06:40:17.049Z,951.73
2022-09-28T06:41:17.009Z,951.73
2022-09-28T06:42:16.989Z,951.67
2022-09-28T06:43:16.965Z,951.71
2022-09-28T06:44:17.112Z,951.71
2022-09-28T06:45:16.939Z,951.69
2022-09-28T06:46:16.985Z,951.71
2022-09-28T06:47:16.936Z,951.73
2022-09-28T06:48:16.911Z,951.73
2022-09-28T06:49:19.484Z,951.71
2022-09-28T06:50:16.912Z,951.83
2022-09-28T06:51:17.289Z,951.78
2022-09-28T06:52:16.928Z,951.78
2022-09-28T06:53:16.924Z,951.79
2022-09-28T06:54:17.171Z,951.82
2022-09-28T06:55:16.864Z,951.80
2022-09-28T06:56:16.883Z,951.82
2022-09-28T06:57:16.860Z,951.81
2022-09-28T06:58:16.867Z,951.83
2022-09-28T06:59:16.830Z,951.87
2022-09-28T07:00:16.837Z,951.86
2022-09-28T07:01:16.896Z,951.85
2022-09-28T07:02:16.837Z,951.87
2022-09-28T07:03:16.767Z,951.91
2022-09-28T07:04:17.037Z,951.88
2022-09-28T07:05:21.283Z,951.91
2022-09-28T07:08:29.325Z,951.97
2022-09-28T07:09:33.071Z,951.97
2022-09-28T07:10:29.370Z,952.00
2022-09-28T07:11:29.211Z,952.07
2022-09-28T07:12:29.234Z,952.00
2022-09-28T07:13:48.375Z,952.06
2022-09-28T07:14:46.970Z,952.09
2022-09-28T07:15:29.154Z,952.07
2022-09-28T07:16:41.122Z,952.12
2022-09-28T07:17:29.405Z,952.09
2022-09-28T07:18:29.130Z,952.18
2022-09-28T07:19:29.118Z,952.20
2022-09-28T07:20:29.086Z,952.17
2022-09-28T07:21:30.705Z,952.19
2022-09-28T07:22:40.854Z,952.17
2022-09-28T07:23:29.047Z,952.21
2022-09-28T07:24:29.056Z,952.21
2022-09-28T07:25:29.024Z,952.20
2022-09-28T07:26:29.002Z,952.16
2022-09-28T07:27:29.174Z,952.18
2022-09-28T07:28:28.975Z,952.26
2022-09-28T07:29:28.978Z,952.25
2022-09-28T07:30:29.050Z,952.26
2022-09-28T07:31:28.951Z,952.25
2022-09-28T07:32:28.934Z,952.28
2022-09-28T07:33:28.928Z,952.31
2022-09-28T07:34:28.903Z,952.33
2022-09-28T07:35:28.917Z,952.41
2022-09-28T07:36:28.898Z,952.35
2022-09-28T07:37:28.876Z,952.34
2022-09-28T07:38:28.859Z,952.40
2022-09-28T07:39:28.856Z,952.40
2022-09-28T07:40:30.076Z,952.39
2022-09-28T07:41:29.964Z,952.45
2022-09-28T07:42:29.945Z,952.41
2022-09-28T07:43:29.925Z,952.44
2022-09-28T07:44:29.903Z,952.37
2022-09-28T07:45:29.952Z,952.47
2022-09-28T07:46:29.921Z,952.49
2022-09-28T07:47:34.868Z,952.46
2022-09-28T07:48:29.875Z,952.41
2022-09-28T07:49:29.854Z,952.45
2022-09-28T07:50:29.854Z,952.47
2022-09-28T07:51:29.872Z,952.50
2022-09-28T07:52:29.814Z,952.46
2022-09-28T07:53:29.822Z,952.49
2022-09-28T07:54:29.788Z,952.48
2022-09-28T07:55:29.789Z,952.49
2022-09-28T07:56:29.860Z,952.49
2022-09-28T07:57:29.816Z,952.46
2022-09-28T07:58:29.749Z,952.52
2022-09-28T07:59:29.764Z,952.40
2022-09-28T08:00:33.350Z,952.56
2022-09-28T08:01:29.805Z,952.51
2022-09-28T08:02:29.781Z,952.54
2022-09-28T08:03:30.391Z,952.54
2022-09-28T08:04:29.686Z,952.55
2022-09-28T08:05:30.675Z,952.57
2022-09-28T08:06:29.655Z,952.55
2022-09-28T08:07:29.651Z,952.51
2022-09-28T08:08:29.683Z,952.52
2022-09-28T08:09:29.633Z,952.55
2022-09-28T08:10:29.634Z,952.59
2022-09-28T08:11:29.610Z,952.60
2022-09-28T08:12:29.603Z,952.62
2022-09-28T08:13:29.612Z,952.61
2022-09-28T08:14:29.575Z,952.60
2022-09-28T08:15:29.578Z,952.66
2022-09-28T08:16:29.637Z,952.64
2022-09-28T08:17:29.541Z,952.64
2022-09-28T08:18:29.547Z,952.63
2022-09-28T08:19:29.537Z,952.68
2022-09-28T08:20:29.506Z,952.67
2022-09-28T08:21:29.509Z,952.69
2022-09-28T08:22:29.491Z,952.68
2022-09-28T08:23:29.491Z,952.66
2022-09-28T08:24:29.478Z,952.70
2022-09-28T08:25:29.447Z,952.69
2022-09-28T08:26:29.427Z,952.67
2022-09-28T08:27:29.438Z,952.76
2022-09-28T08:28:29.435Z,952.74
2022-09-28T08:29:29.395Z,952.77
2022-09-28T08:30:29.428Z,952.78
2022-09-28T08:31:29.366Z,952.81
2022-09-28T08:32:29.375Z,952.84
2022-09-28T08:33:29.400Z,952.81
2022-09-28T08:34:29.333Z,952.84
2022-09-28T08:35:29.324Z,952.87
2022-09-28T08:36:29.305Z,952.89
2022-09-28T08:37:29.307Z,952.90
2022-09-28T08:38:29.344Z,952.84
2022-09-28T08:39:29.275Z,952.89
2022-09-28T08:40:29.352Z,952.84
2022-09-28T08:41:29.250Z,952.86
2022-09-28T08:42:29.252Z,952.82
2022-09-28T08:43:29.251Z,952.89
2022-09-28T08:44:29.241Z,952.87
2022-09-28T08:45:29.213Z,952.90
2022-09-28T08:46:29.235Z,952.89
2022-09-28T08:47:29.190Z,952.88
2022-09-28T08:48:29.189Z,952.94
2022-09-28T08:49:29.176Z,952.85
2022-09-28T08:50:29.162Z,952.87
2022-09-28T08:51:29.551Z,952.92
2022-09-28T08:52:29.125Z,952.93
2022-09-28T08:53:29.128Z,952.89
2022-09-28T08:54:29.137Z,952.84
2022-09-28T08:55:29.090Z,952.93
2022-09-28T08:56:29.095Z,952.97
2022-09-28T08:57:29.077Z,952.97
2022-09-28T08:58:29.060Z,953.00
2022-09-28T08:59:29.098Z,952.95
2022-09-28T09:00:29.373Z,953.00
2022-09-28T09:01:29.112Z,952.96
2022-09-28T09:02:29.061Z,953.00
2022-09-28T09:03:29.001Z,953.06
2022-09-28T09:04:28.981Z,953.07
2022-09-28T09:05:28.982Z,953.03
2022-09-28T09:06:28.980Z,953.07
2022-09-28T09:07:28.966Z,952.97
2022-09-28T09:08:28.943Z,953.03
2022-09-28T09:09:28.943Z,953.04
2022-09-28T09:10:28.967Z,952.99
2022-09-28T09:11:28.914Z,953.07
2022-09-28T09:12:28.902Z,953.12
2022-09-28T09:13:28.881Z,953.09
2022-09-28T09:14:28.875Z,953.03
2022-09-28T09:15:28.907Z,953.02
2022-09-28T09:16:28.904Z,953.09
2022-09-28T09:17:29.843Z,953.04
2022-09-28T09:18:28.834Z,953.01
2022-09-28T09:19:28.816Z,953.04
2022-09-28T09:20:28.810Z,953.06
2022-09-28T09:21:28.845Z,953.12
2022-09-28T09:22:28.786Z,953.14
2022-09-28T09:23:28.775Z,953.17
2022-09-28T09:24:28.776Z,953.18
2022-09-28T09:25:28.745Z,953.18
2022-09-28T09:26:28.790Z,953.09
2022-09-28T09:27:28.731Z,953.12
2022-09-28T09:28:28.820Z,953.14
2022-09-28T09:29:28.709Z,953.08
2022-09-28T09:30:31.393Z,953.04
2022-09-28T09:31:28.711Z,953.11
2022-09-28T09:32:28.719Z,953.13
2022-09-28T09:33:28.670Z,953.09
2022-09-28T09:34:28.663Z,953.10
2022-09-28T09:35:31.227Z,953.18
2022-09-28T09:36:28.641Z,953.21
2022-09-28T09:37:28.647Z,953.16
2022-09-28T09:38:28.630Z,953.22
2022-09-28T09:39:28.618Z,953.16
2022-09-28T09:40:28.617Z,953.20
2022-09-28T09:41:28.606Z,953.18
2022-09-28T09:42:28.572Z,953.22
2022-09-28T09:43:31.565Z,953.20
2022-09-28T09:44:28.569Z,953.20
2022-09-28T09:45:28.541Z,953.17
2022-09-28T09:46:29.238Z,953.24
2022-09-28T09:47:28.537Z,953.24
2022-09-28T09:48:28.542Z,953.30
2022-09-28T09:49:28.511Z,953.25
2022-09-28T09:50:28.652Z,953.23
2022-09-28T09:51:28.493Z,953.29
2022-09-28T09:52:28.515Z,953.22
2022-09-28T09:53:28.475Z,953.23
2022-09-28T09:54:28.486Z,953.25
2022-09-28T09:55:30.294Z,953.26
2022-09-28T09:56:28.440Z,953.40
2022-09-28T09:57:28.404Z,953.34
2022-09-28T09:58:28.406Z,953.35
2022-09-28T09:59:28.418Z,953.29
2022-09-28T10:00:28.385Z,953.32
2022-09-28T10:01:28.417Z,953.29
2022-09-28T10:02:28.402Z,953.28
2022-09-28T10:03:28.364Z,953.26
2022-09-28T10:04:28.387Z,953.29
2022-09-28T10:05:28.329Z,953.35
2022-09-28T10:06:28.303Z,953.26
2022-09-28T10:07:28.534Z,953.26
2022-09-28T10:08:28.303Z,953.31
2022-09-28T10:09:28.286Z,953.33
2022-09-28T10:10:28.313Z,953.28
2022-09-28T10:11:28.278Z,953.29
2022-09-28T10:12:28.255Z,953.29
2022-09-28T10:13:28.372Z,953.31
2022-09-28T10:14:28.231Z,953.34
2022-09-28T10:15:28.263Z,953.31
2022-09-28T10:16:28.295Z,953.30
2022-09-28T10:17:28.204Z,953.28
2022-09-28T10:18:28.189Z,953.32
2022-09-28T10:19:28.198Z,953.31
2022-09-28T10:20:28.212Z,953.28
2022-09-28T10:21:28.143Z,953.29
2022-09-28T10:22:28.151Z,953.31
2022-09-28T10:23:28.136Z,953.34
2022-09-28T10:24:28.134Z,953.35
2022-09-28T10:25:28.276Z,953.31
2022-09-28T10:26:28.231Z,953.35
2022-09-28T10:27:28.103Z,953.37
2022-09-28T10:28:28.076Z,953.33
2022-09-28T10:29:28.065Z,953.33
2022-09-28T10:30:28.108Z,953.33
2022-09-28T10:31:28.062Z,953.38
2022-09-28T10:32:28.029Z,953.39
2022-09-28T10:33:28.041Z,953.45
2022-09-28T10:34:28.029Z,953.43
2022-09-28T10:35:28.010Z,953.51
2022-09-28T10:36:28.011Z,953.50
2022-09-28T10:37:27.976Z,953.53
2022-09-28T10:38:27.975Z,953.55
2022-09-28T10:39:27.959Z,953.57
2022-09-28T10:40:28.009Z,953.61
2022-09-28T10:41:28.000Z,953.60
2022-09-28T10:42:27.919Z,953.55
2022-09-28T10:43:27.916Z,953.59
2022-09-28T10:44:27.898Z,953.59
2022-09-28T10:45:27.901Z,953.60
2022-09-28T10:46:27.984Z,953.61
2022-09-28T10:47:27.882Z,953.61
2022-09-28T10:48:27.853Z,953.69
2022-09-28T10:49:27.833Z,953.63
2022-09-28T10:50:27.845Z,953.64
2022-09-28T10:51:27.824Z,953.66
2022-09-28T10:52:27.828Z,953.63
2022-09-28T10:53:27.818Z,953.72
2022-09-28T10:54:27.786Z,953.66
2022-09-28T10:55:27.800Z,953.67
2022-09-28T10:56:27.781Z,953.65
2022-09-28T10:57:27.775Z,953.66
2022-09-28T10:58:27.738Z,953.70
2022-09-28T10:59:27.747Z,953.74
2022-09-28T11:00:27.704Z,953.71
2022-09-28T11:01:27.759Z,953.84
2022-09-28T11:02:29.544Z,953.79
2022-09-28T11:03:27.680Z,953.77
2022-09-28T11:04:27.656Z,953.79
2022-09-28T11:05:27.645Z,953.74
2022-09-28T11:06:27.653Z,953.79
2022-09-28T11:07:27.800Z,953.86
2022-09-28T11:08:27.625Z,953.84
2022-09-28T11:09:30.528Z,953.84
2022-09-28T11:10:27.641Z,953.78
2022-09-28T11:11:27.577Z,953.78
2022-09-28T11:12:27.609Z,953.73
2022-09-28T11:13:29.114Z,953.75
2022-09-28T11:14:27.546Z,953.68
2022-09-28T11:15:27.552Z,953.69
2022-09-28T11:16:27.563Z,953.69
2022-09-28T11:17:27.544Z,953.58
2022-09-28T11:18:27.503Z,953.61
2022-09-28T11:19:27.491Z,953.62
2022-09-28T11:20:28.642Z,953.62
2022-09-28T11:21:27.463Z,953.63
2022-09-28T11:22:27.457Z,953.67
2022-09-28T11:23:27.490Z,953.64
2022-09-28T11:24:27.661Z,953.60
2022-09-28T11:25:27.432Z,953.65
2022-09-28T11:26:27.424Z,953.68
2022-09-28T11:27:27.432Z,953.67
2022-09-28T11:28:27.417Z,953.64
2022-09-28T11:29:27.382Z,953.61
2022-09-28T11:30:27.416Z,953.62
2022-09-28T11:31:27.370Z,953.61
2022-09-28T11:32:27.374Z,953.68
2022-09-28T11:33:27.355Z,953.63
2022-09-28T11:34:36.457Z,953.62
2022-09-28T11:35:27.323Z,953.59
2022-09-28T11:36:27.333Z,953.52
2022-09-28T11:37:27.316Z,953.57
2022-09-28T11:38:27.311Z,953.55
2022-09-28T11:39:27.286Z,953.59
2022-09-28T11:40:27.358Z,953.60
2022-09-28T11:41:28.259Z,953.58
2022-09-28T11:42:27.276Z,953.63
2022-09-28T11:43:27.294Z,953.63
2022-09-28T11:44:30.848Z,953.55
2022-09-28T11:45:27.345Z,953.56
2022-09-28T11:46:27.271Z,953.54
2022-09-28T11:47:27.213Z,953.47
2022-09-28T11:48:27.196Z,953.53
2022-09-28T11:49:27.181Z,953.55
2022-09-28T11:50:27.166Z,953.58
2022-09-28T11:51:27.146Z,953.54
2022-09-28T11:52:27.141Z,953.56
2022-09-28T11:53:27.155Z,953.60
2022-09-28T11:54:27.159Z,953.56
2022-09-28T11:55:27.109Z,953.61
2022-09-28T11:56:27.133Z,953.62
2022-09-28T11:57:27.087Z,953.56
2022-09-28T11:58:27.094Z,953.54
2022-09-28T11:59:27.197Z,953.58
2022-09-28T12:00:27.069Z,953.66
2022-09-28T12:01:27.060Z,953.58
2022-09-28T12:02:27.087Z,953.60
2022-09-28T12:03:27.180Z,953.61
2022-09-28T12:04:27.008Z,953.62
2022-09-28T12:05:27.023Z,953.50
2022-09-28T12:06:26.989Z,953.52
2022-09-28T12:07:26.982Z,953.55
2022-09-28T12:08:27.007Z,953.51
2022-09-28T12:09:26.961Z,953.51
2022-09-28T12:10:26.953Z,953.56
2022-09-28T12:11:26.940Z,953.54
2022-09-28T12:12:26.931Z,953.55
2022-09-28T12:13:26.975Z,953.56
2022-09-28T12:14:26.924Z,953.67
2022-09-28T12:15:26.896Z,953.61
2022-09-28T12:17:00.443Z,953.69
2022-09-28T12:17:28.932Z,953.67
2022-09-28T12:18:26.903Z,953.65
2022-09-28T12:19:26.864Z,953.70
2022-09-28T12:20:26.846Z,953.69
2022-09-28T12:21:26.844Z,953.70
2022-09-28T12:22:26.831Z,953.76
2022-09-28T12:23:26.818Z,953.77
2022-09-28T12:24:26.820Z,953.81
2022-09-28T12:25:26.793Z,953.78
2022-09-28T12:26:26.781Z,953.83
2022-09-28T12:27:26.775Z,953.87
2022-09-28T12:28:26.764Z,953.86
2022-09-28T12:29:26.752Z,953.84
2022-09-28T12:30:26.738Z,953.87